Vandalia, Illinois
Current Conditions -  °F | °C
As of 7:35 PM on Friday 24 Oct 2014 (Local Time) from KSLO Reporting Station
Clear Clear  
Wind Chill: 14°   Ceiling: Unl
Heat Index: 14°   Visibility: 7mi
Dew Point: 12°   Wind: 3mph
Humidity: 92%   Direction: 150°SSE
Pressure: 30.03"   Gusts: NA
Location:  38.96°N, 89.1°W
Report Text: KSLO 250035Z AUTO 15003KT 7SM CLR 14/12 A3003 RMK AO2 T01350123
Loading
Personal Weather Stations






























Interactive Weather Map
Tropical Storm Tracking
New forecast layout! Learn more

10-Day Weather Forecast

Advertisements
Track Severe Weather on mobile